createdAt,value
2023-05-01T00:00:49.822Z,694.00
2023-05-01T00:01:49.828Z,693.00
2023-05-01T00:02:49.907Z,696.00
2023-05-01T00:03:49.964Z,696.00
2023-05-01T00:04:49.909Z,698.00
2023-05-01T00:05:49.856Z,700.00
2023-05-01T00:06:49.927Z,699.00
2023-05-01T00:07:49.870Z,698.00
2023-05-01T00:08:49.878Z,695.00
2023-05-01T00:09:49.884Z,696.00
2023-05-01T00:10:49.888Z,698.00
2023-05-01T00:11:49.913Z,700.00
2023-05-01T00:12:49.891Z,700.00
2023-05-01T00:13:49.894Z,696.00
2023-05-01T00:14:49.895Z,696.00
2023-05-01T00:15:49.904Z,698.00
2023-05-01T00:16:50.053Z,698.00
2023-05-01T00:17:50.020Z,696.00
2023-05-01T00:18:49.908Z,698.00
2023-05-01T00:19:49.910Z,697.00
2023-05-01T00:20:49.920Z,697.00
2023-05-01T00:21:49.915Z,699.00
2023-05-01T00:22:49.923Z,699.00
2023-05-01T00:23:49.953Z,701.00
2023-05-01T00:24:49.961Z,697.00
2023-05-01T00:25:49.948Z,698.00
2023-05-01T00:26:49.934Z,699.00
2023-05-01T00:27:49.935Z,700.00
2023-05-01T00:28:49.943Z,702.00
2023-05-01T00:29:49.982Z,698.00
2023-05-01T00:30:50.002Z,701.00
2023-05-01T00:31:50.124Z,698.00
2023-05-01T00:32:50.133Z,696.00
2023-05-01T00:33:50.084Z,699.00
2023-05-01T00:34:50.110Z,698.00
2023-05-01T00:35:50.144Z,696.00
2023-05-01T00:36:50.191Z,697.00
2023-05-01T00:37:50.179Z,696.00
2023-05-01T00:38:50.205Z,698.00
2023-05-01T00:39:50.224Z,698.00
2023-05-01T00:40:50.247Z,696.00
2023-05-01T00:41:50.269Z,697.00
2023-05-01T00:42:50.283Z,697.00
2023-05-01T00:43:50.303Z,697.00
2023-05-01T00:44:50.320Z,697.00
2023-05-01T00:45:50.487Z,694.00
2023-05-01T00:46:50.353Z,692.00
2023-05-01T00:47:50.404Z,694.00
2023-05-01T00:48:50.352Z,695.00
2023-05-01T00:49:50.363Z,694.00
2023-05-01T00:50:50.384Z,692.00
2023-05-01T00:51:50.381Z,692.00
2023-05-01T00:52:50.448Z,692.00
2023-05-01T00:53:50.387Z,692.00
2023-05-01T00:54:50.419Z,695.00
2023-05-01T00:55:50.428Z,695.00
2023-05-01T00:56:50.438Z,695.00
2023-05-01T00:57:50.451Z,695.00
2023-05-01T00:58:50.470Z,696.00
2023-05-01T00:59:50.503Z,695.00
2023-05-01T01:00:50.493Z,697.00
2023-05-01T01:01:50.483Z,698.00
2023-05-01T01:02:50.539Z,700.00
2023-05-01T01:03:50.495Z,700.00
2023-05-01T01:04:50.591Z,702.00
2023-05-01T01:05:50.508Z,701.00
2023-05-01T01:06:50.604Z,700.00
2023-05-01T01:07:50.493Z,698.00
2023-05-01T01:08:50.524Z,699.00
2023-05-01T01:09:50.534Z,700.00
2023-05-01T01:10:50.540Z,702.00
2023-05-01T01:11:50.565Z,703.00
2023-05-01T01:12:50.618Z,705.00
2023-05-01T01:13:50.649Z,706.00
2023-05-01T01:14:50.669Z,702.00
2023-05-01T01:15:50.753Z,702.00
2023-05-01T01:16:50.830Z,701.00
2023-05-01T01:17:50.864Z,701.00
2023-05-01T01:18:50.841Z,702.00
2023-05-01T01:19:50.884Z,704.00
2023-05-01T01:20:50.910Z,705.00
2023-05-01T01:21:50.936Z,703.00
2023-05-01T01:22:50.959Z,702.00
2023-05-01T01:23:50.996Z,701.00
2023-05-01T01:24:51.019Z,702.00
2023-05-01T01:25:51.027Z,702.00
2023-05-01T01:26:51.088Z,701.00
2023-05-01T01:27:51.108Z,702.00
2023-05-01T01:28:51.139Z,702.00
2023-05-01T01:29:51.178Z,702.00
2023-05-01T01:30:51.267Z,704.00
2023-05-01T01:31:51.229Z,704.00
2023-05-01T01:32:51.281Z,704.00
2023-05-01T01:33:51.290Z,704.00
2023-05-01T01:34:51.282Z,705.00
2023-05-01T01:35:51.306Z,703.00
2023-05-01T01:36:51.350Z,701.00
2023-05-01T01:37:51.378Z,698.00
2023-05-01T01:38:51.421Z,698.00
2023-05-01T01:39:51.456Z,698.00
2023-05-01T01:40:51.493Z,697.00
2023-05-01T01:41:51.523Z,698.00
2023-05-01T01:42:51.556Z,698.00
2023-05-01T01:43:51.611Z,695.00
2023-05-01T01:44:51.637Z,696.00
2023-05-01T01:45:51.724Z,695.00
2023-05-01T01:46:51.697Z,698.00
2023-05-01T01:47:51.757Z,701.00
2023-05-01T01:48:51.781Z,701.00
2023-05-01T01:49:51.846Z,702.00
2023-05-01T01:50:51.867Z,703.00
2023-05-01T01:51:51.920Z,705.00
2023-05-01T01:52:51.982Z,705.00
2023-05-01T01:53:52.005Z,705.00
2023-05-01T01:54:52.050Z,704.00
2023-05-01T01:55:52.101Z,703.00
2023-05-01T01:56:52.139Z,702.00
2023-05-01T01:57:52.176Z,703.00
2023-05-01T01:58:52.254Z,705.00
2023-05-01T01:59:52.310Z,707.00
2023-05-01T02:00:52.344Z,705.00
2023-05-01T02:01:52.460Z,704.00
2023-05-01T02:02:52.518Z,704.00
2023-05-01T02:03:52.562Z,704.00
2023-05-01T02:04:52.552Z,704.00
2023-05-01T02:05:52.572Z,704.00
2023-05-01T02:06:52.686Z,704.00
2023-05-01T02:07:52.646Z,705.00
2023-05-01T02:08:52.713Z,705.00
2023-05-01T02:09:52.727Z,707.00
2023-05-01T02:10:52.769Z,703.00
2023-05-01T02:11:52.817Z,702.00
2023-05-01T02:12:52.872Z,701.00
2023-05-01T02:13:52.922Z,698.00
2023-05-01T02:14:52.971Z,700.00
2023-05-01T02:15:53.067Z,701.00
2023-05-01T02:16:53.110Z,701.00
2023-05-01T02:17:53.368Z,700.00
2023-05-01T02:18:53.224Z,699.00
2023-05-01T02:19:53.344Z,701.00
2023-05-01T02:20:53.294Z,699.00
2023-05-01T02:21:53.334Z,699.00
2023-05-01T02:22:53.412Z,702.00
2023-05-01T02:23:53.396Z,705.00
2023-05-01T02:24:53.455Z,705.00
2023-05-01T02:25:53.521Z,706.00
2023-05-01T02:26:53.537Z,706.00
2023-05-01T02:27:53.580Z,706.00
2023-05-01T02:28:53.611Z,706.00
2023-05-01T02:29:53.916Z,707.00
2023-05-01T02:30:53.759Z,706.00
2023-05-01T02:31:53.897Z,702.00
2023-05-01T02:32:53.943Z,701.00
2023-05-01T02:33:53.912Z,702.00
2023-05-01T02:34:53.936Z,704.00
2023-05-01T02:35:54.628Z,703.00
2023-05-01T02:36:53.997Z,704.00
2023-05-01T02:37:54.059Z,701.00
2023-05-01T02:38:54.089Z,699.00
2023-05-01T02:39:54.216Z,697.00
2023-05-01T02:40:54.208Z,698.00
2023-05-01T02:41:54.253Z,697.00
2023-05-01T02:42:54.309Z,699.00
2023-05-01T02:43:54.335Z,698.00
2023-05-01T02:44:54.376Z,698.00
2023-05-01T02:45:54.521Z,697.00
2023-05-01T02:46:54.560Z,698.00
2023-05-01T02:47:54.650Z,700.00
2023-05-01T02:48:54.580Z,700.00
2023-05-01T02:49:54.887Z,697.00
2023-05-01T02:50:54.674Z,696.00
2023-05-01T02:51:54.645Z,697.00
2023-05-01T02:52:54.635Z,700.00
2023-05-01T02:53:54.628Z,700.00
2023-05-01T02:54:54.615Z,699.00
2023-05-01T02:55:54.618Z,698.00
2023-05-01T02:56:54.610Z,698.00
2023-05-01T02:57:54.608Z,701.00
2023-05-01T02:58:54.598Z,700.00
2023-05-01T02:59:54.733Z,701.00
2023-05-01T03:00:54.669Z,701.00
2023-05-01T03:01:54.581Z,702.00
2023-05-01T03:02:54.674Z,700.00
2023-05-01T03:03:54.703Z,699.00
2023-05-01T03:04:54.746Z,699.00
2023-05-01T03:05:54.808Z,699.00
2023-05-01T03:06:54.847Z,701.00
2023-05-01T03:07:54.908Z,699.00
2023-05-01T03:08:54.968Z,700.00
2023-05-01T03:09:55.198Z,702.00
2023-05-01T03:10:55.091Z,703.00
2023-05-01T03:11:55.120Z,701.00
2023-05-01T03:12:55.174Z,700.00
2023-05-01T03:13:55.216Z,700.00
2023-05-01T03:14:55.254Z,702.00
2023-05-01T03:15:55.382Z,702.00
2023-05-01T03:16:55.373Z,699.00
2023-05-01T03:17:55.443Z,695.00
2023-05-01T03:18:55.436Z,696.00
2023-05-01T03:19:55.664Z,699.00
2023-05-01T03:20:55.517Z,699.00
2023-05-01T03:21:55.571Z,698.00
2023-05-01T03:22:55.609Z,697.00
2023-05-01T03:23:55.625Z,701.00
2023-05-01T03:24:55.682Z,703.00
2023-05-01T03:25:55.725Z,703.00
2023-05-01T03:26:55.780Z,704.00
2023-05-01T03:27:55.862Z,706.00
2023-05-01T03:28:55.872Z,709.00
2023-05-01T03:29:56.054Z,710.00
2023-05-01T03:30:55.994Z,711.00
2023-05-01T03:31:56.105Z,712.00
2023-05-01T03:32:56.114Z,712.00
2023-05-01T03:33:56.163Z,710.00
2023-05-01T03:34:56.253Z,708.00
2023-05-01T03:35:56.250Z,708.00
2023-05-01T03:36:56.282Z,706.00
2023-05-01T03:37:56.323Z,705.00
2023-05-01T03:38:56.328Z,706.00
2023-05-01T03:39:56.517Z,707.00
2023-05-01T03:40:56.330Z,705.00
2023-05-01T03:41:56.336Z,703.00
2023-05-01T03:42:56.317Z,704.00
2023-05-01T03:43:56.327Z,702.00
2023-05-01T03:44:56.317Z,700.00
2023-05-01T03:45:56.344Z,701.00
2023-05-01T03:46:56.303Z,700.00
2023-05-01T03:47:56.300Z,698.00
2023-05-01T03:48:56.338Z,695.00
2023-05-01T03:49:56.597Z,697.00
2023-05-01T03:50:56.433Z,696.00
2023-05-01T03:51:56.506Z,699.00
2023-05-01T03:52:56.544Z,699.00
2023-05-01T03:53:56.572Z,701.00
2023-05-01T03:54:56.623Z,701.00
2023-05-01T03:55:56.678Z,700.00
2023-05-01T03:56:56.734Z,700.00
2023-05-01T03:57:56.775Z,699.00
2023-05-01T03:58:56.827Z,700.00
2023-05-01T03:59:57.027Z,701.00
2023-05-01T04:00:56.970Z,700.00
2023-05-01T04:01:57.012Z,702.00
2023-05-01T04:02:57.212Z,705.00
2023-05-01T04:03:57.108Z,707.00
2023-05-01T04:04:57.111Z,705.00
2023-05-01T04:05:57.196Z,706.00
2023-05-01T04:06:57.244Z,706.00
2023-05-01T04:07:57.273Z,705.00
2023-05-01T04:08:57.348Z,704.00
2023-05-01T04:09:57.541Z,700.00
2023-05-01T04:10:57.452Z,702.00
2023-05-01T04:11:57.496Z,701.00
2023-05-01T04:12:57.544Z,701.00
2023-05-01T04:13:57.604Z,702.00
2023-05-01T04:14:57.691Z,701.00
2023-05-01T04:15:57.771Z,701.00
2023-05-01T04:16:57.778Z,698.00
2023-05-01T04:17:57.877Z,697.00
2023-05-01T04:18:57.896Z,695.00
2023-05-01T04:19:58.128Z,696.00
2023-05-01T04:20:58.006Z,694.00
2023-05-01T04:21:58.070Z,696.00
2023-05-01T04:22:58.125Z,696.00
2023-05-01T04:23:58.187Z,696.00
2023-05-01T04:24:58.258Z,698.00
2023-05-01T04:25:58.312Z,699.00
2023-05-01T04:26:58.380Z,700.00
2023-05-01T04:27:58.424Z,698.00
2023-05-01T04:28:58.556Z,697.00
2023-05-01T04:29:58.738Z,697.00
2023-05-01T04:30:58.588Z,698.00
2023-05-01T04:31:58.763Z,696.00
2023-05-01T04:32:58.783Z,695.00
2023-05-01T04:33:58.788Z,695.00
2023-05-01T04:34:58.849Z,694.00
2023-05-01T04:35:58.900Z,692.00
2023-05-01T04:36:58.970Z,689.00
2023-05-01T04:37:59.016Z,688.00
2023-05-01T04:38:59.084Z,687.00
2023-05-01T04:39:59.221Z,689.00
2023-05-01T04:40:59.227Z,691.00
2023-05-01T04:41:59.281Z,691.00
2023-05-01T04:42:59.326Z,691.00
2023-05-01T04:43:59.394Z,690.00
2023-05-01T04:44:59.458Z,690.00
2023-05-01T04:45:59.502Z,690.00
2023-05-01T04:46:59.590Z,690.00
2023-05-01T04:47:59.618Z,688.00
2023-05-01T04:48:59.639Z,691.00
2023-05-01T04:49:59.710Z,690.00
2023-05-01T04:50:59.762Z,689.00
2023-05-01T04:51:59.822Z,689.00
2023-05-01T04:52:59.831Z,690.00
2023-05-01T04:53:59.841Z,690.00
2023-05-01T04:54:59.820Z,686.00
2023-05-01T04:55:59.818Z,687.00
2023-05-01T04:56:59.834Z,688.00
2023-05-01T04:57:59.823Z,687.00
2023-05-01T04:58:59.832Z,685.00
2023-05-01T04:59:59.915Z,686.00
2023-05-01T05:00:59.805Z,688.00
2023-05-01T05:02:00.001Z,688.00
2023-05-01T05:03:00.009Z,688.00
2023-05-01T05:04:00.044Z,687.00
2023-05-01T05:05:00.030Z,689.00
2023-05-01T05:06:00.223Z,689.00
2023-05-01T05:07:00.176Z,691.00
2023-05-01T05:08:00.186Z,694.00
2023-05-01T05:09:00.251Z,693.00
2023-05-01T05:10:00.303Z,692.00
2023-05-01T05:11:00.372Z,690.00
2023-05-01T05:12:00.373Z,688.00
2023-05-01T05:13:00.427Z,688.00
2023-05-01T05:14:00.496Z,686.00
2023-05-01T05:15:00.566Z,685.00
2023-05-01T05:16:00.654Z,685.00
2023-05-01T05:17:00.714Z,685.00
2023-05-01T05:18:00.854Z,684.00
2023-05-01T05:19:00.779Z,684.00
2023-05-01T05:20:00.864Z,684.00
2023-05-01T05:21:00.922Z,684.00
2023-05-01T05:22:00.982Z,685.00
2023-05-01T05:23:01.037Z,687.00
2023-05-01T05:24:01.106Z,687.00
2023-05-01T05:25:01.165Z,688.00
2023-05-01T05:26:01.228Z,685.00
2023-05-01T05:27:01.287Z,683.00
2023-05-01T05:28:01.350Z,681.00
2023-05-01T05:29:01.436Z,681.00
2023-05-01T05:30:01.514Z,682.00
2023-05-01T05:31:01.571Z,682.00
2023-05-01T05:32:01.667Z,683.00
2023-05-01T05:33:01.711Z,684.00
2023-05-01T05:34:01.745Z,683.00
2023-05-01T05:35:01.795Z,681.00
2023-05-01T05:36:01.858Z,684.00
2023-05-01T05:37:01.920Z,683.00
2023-05-01T05:38:01.995Z,684.00
2023-05-01T05:39:02.048Z,686.00
2023-05-01T05:40:02.084Z,688.00
2023-05-01T05:41:02.156Z,686.00
2023-05-01T05:42:02.210Z,685.00
2023-05-01T05:43:02.268Z,683.00
2023-05-01T05:44:02.322Z,682.00
2023-05-01T05:45:02.388Z,686.00
2023-05-01T05:46:02.468Z,685.00
2023-05-01T05:47:02.517Z,685.00
2023-05-01T05:48:02.602Z,685.00
2023-05-01T05:49:02.631Z,686.00
2023-05-01T05:50:02.684Z,684.00
2023-05-01T05:51:02.750Z,683.00
2023-05-01T05:52:02.799Z,684.00
2023-05-01T05:53:02.854Z,685.00
2023-05-01T05:54:02.911Z,684.00
2023-05-01T05:55:02.980Z,686.00
2023-05-01T05:56:03.034Z,687.00
2023-05-01T05:57:03.114Z,686.00
2023-05-01T05:58:03.178Z,684.00
2023-05-01T05:59:03.191Z,683.00
2023-05-01T06:00:03.237Z,684.00
2023-05-01T06:01:03.284Z,685.00
2023-05-01T06:02:03.348Z,687.00
2023-05-01T06:03:03.515Z,687.00
2023-05-01T06:04:03.459Z,688.00
2023-05-01T06:06:03.777Z,689.00
2023-05-01T06:07:03.728Z,689.00
2023-05-01T06:08:03.675Z,690.00
2023-05-01T06:09:03.729Z,686.00
2023-05-01T06:10:03.765Z,685.00
2023-05-01T06:11:03.810Z,683.00
2023-05-01T06:12:03.855Z,685.00
2023-05-01T06:13:13.425Z,687.00
2023-05-01T06:14:04.906Z,688.00
2023-05-01T06:15:03.969Z,685.00
2023-05-01T06:16:03.942Z,686.00
2023-05-01T06:17:03.906Z,687.00
2023-05-01T06:18:03.955Z,686.00
2023-05-01T06:19:03.912Z,687.00
2023-05-01T06:20:03.914Z,685.00
2023-05-01T06:21:03.908Z,685.00
2023-05-01T06:22:03.930Z,684.00
2023-05-01T06:23:03.946Z,685.00
2023-05-01T06:24:04.017Z,687.00
2023-05-01T06:25:04.085Z,688.00
2023-05-01T06:26:04.140Z,691.00
2023-05-01T06:27:04.213Z,687.00
2023-05-01T06:28:04.269Z,690.00
2023-05-01T06:29:04.317Z,690.00
2023-05-01T06:30:04.398Z,691.00
2023-05-01T06:31:04.469Z,690.00
2023-05-01T06:32:04.482Z,688.00
2023-05-01T06:33:04.647Z,691.00
2023-05-01T06:34:04.603Z,690.00
2023-05-01T06:35:04.652Z,689.00
2023-05-01T06:36:04.706Z,689.00
2023-05-01T06:37:04.763Z,688.00
2023-05-01T06:38:04.816Z,690.00
2023-05-01T06:39:04.878Z,689.00
2023-05-01T06:40:04.931Z,689.00
2023-05-01T06:41:05.002Z,686.00
2023-05-01T06:42:05.083Z,686.00
2023-05-01T06:43:05.103Z,686.00
2023-05-01T06:44:05.168Z,688.00
2023-05-01T06:45:05.225Z,690.00
2023-05-01T06:46:05.285Z,693.00
2023-05-01T06:47:05.411Z,692.00
2023-05-01T06:48:05.519Z,694.00
2023-05-01T06:49:05.463Z,694.00
2023-05-01T06:50:05.964Z,694.00
2023-05-01T06:51:05.558Z,695.00
2023-05-01T06:52:05.619Z,697.00
2023-05-01T06:53:05.679Z,697.00
2023-05-01T06:54:05.739Z,697.00
2023-05-01T06:55:05.810Z,698.00
2023-05-01T06:56:05.873Z,698.00
2023-05-01T06:57:05.942Z,697.00
2023-05-01T06:58:16.052Z,695.00
2023-05-01T06:59:07.013Z,695.00
2023-05-01T07:00:06.007Z,693.00
2023-05-01T07:01:06.089Z,690.00
2023-05-01T07:02:06.020Z,689.00
2023-05-01T07:03:06.030Z,688.00
2023-05-01T07:04:06.003Z,690.00
2023-05-01T07:05:06.027Z,690.00
2023-05-01T07:06:06.048Z,690.00
2023-05-01T07:07:06.011Z,690.00
2023-05-01T07:08:06.082Z,688.00
2023-05-01T07:09:06.145Z,689.00
2023-05-01T07:10:06.208Z,689.00
2023-05-01T07:11:06.285Z,685.00
2023-05-01T07:12:06.348Z,686.00
2023-05-01T07:13:06.385Z,687.00
2023-05-01T07:14:06.451Z,686.00
2023-05-01T07:15:06.519Z,685.00
2023-05-01T07:16:06.580Z,686.00
2023-05-01T07:17:06.627Z,684.00
2023-05-01T07:18:06.791Z,683.00
2023-05-01T07:19:06.747Z,684.00
2023-05-01T07:20:06.795Z,682.00
2023-05-01T07:21:06.843Z,686.00
2023-05-01T07:22:06.899Z,686.00
2023-05-01T07:23:07.788Z,686.00
2023-05-01T07:24:07.025Z,688.00
2023-05-01T07:25:07.078Z,686.00
2023-05-01T07:26:07.139Z,683.00
2023-05-01T07:27:07.198Z,683.00
2023-05-01T07:28:07.252Z,683.00
2023-05-01T07:29:07.355Z,688.00
2023-05-01T07:30:07.350Z,688.00
2023-05-01T07:31:07.422Z,689.00
2023-05-01T07:32:07.588Z,690.00
2023-05-01T07:33:07.544Z,690.00
2023-05-01T07:34:07.581Z,688.00
2023-05-01T07:35:07.628Z,688.00
2023-05-01T07:36:07.670Z,686.00
2023-05-01T07:37:07.728Z,683.00
2023-05-01T07:38:07.776Z,685.00
2023-05-01T07:39:07.833Z,684.00
2023-05-01T07:40:07.904Z,685.00
2023-05-01T07:41:07.952Z,684.00
2023-05-01T07:42:08.025Z,684.00
2023-05-01T07:43:08.054Z,681.00
2023-05-01T07:44:08.155Z,681.00
2023-05-01T07:45:53.682Z,668.00
2023-05-01T07:46:53.660Z,671.00
2023-05-01T07:47:53.669Z,671.00
2023-05-01T07:48:53.648Z,673.00
2023-05-01T07:49:53.822Z,672.00
2023-05-01T07:50:53.619Z,672.00
2023-05-01T07:51:53.612Z,671.00
2023-05-01T07:52:53.589Z,672.00
2023-05-01T07:53:53.574Z,672.00
2023-05-01T07:54:53.567Z,674.00
2023-05-01T07:55:53.562Z,675.00
2023-05-01T07:56:53.550Z,673.00
2023-05-01T07:57:53.541Z,674.00
2023-05-01T07:58:53.532Z,673.00
2023-05-01T07:59:53.743Z,672.00
2023-05-01T08:00:53.510Z,673.00
2023-05-01T08:01:53.555Z,673.00
2023-05-01T08:02:53.658Z,675.00
2023-05-01T08:03:53.585Z,673.00
2023-05-01T08:04:53.577Z,673.00
2023-05-01T08:05:53.466Z,673.00
2023-05-01T08:06:53.512Z,675.00
2023-05-01T08:07:53.454Z,675.00
2023-05-01T08:08:53.456Z,675.00
2023-05-01T08:09:53.522Z,677.00
2023-05-01T08:10:53.445Z,678.00
2023-05-01T08:11:53.425Z,680.00
2023-05-01T08:12:53.411Z,678.00
2023-05-01T08:13:53.395Z,677.00
2023-05-01T08:14:53.395Z,675.00
2023-05-01T08:15:53.403Z,673.00
2023-05-01T08:16:53.365Z,674.00
2023-05-01T08:17:53.405Z,674.00
2023-05-01T08:18:53.343Z,672.00
2023-05-01T08:19:53.372Z,670.00
2023-05-01T08:20:53.331Z,670.00
2023-05-01T08:21:53.316Z,672.00
2023-05-01T08:22:53.306Z,673.00
2023-05-01T08:23:53.284Z,672.00
2023-05-01T08:24:53.277Z,670.00
2023-05-01T08:25:53.258Z,671.00
2023-05-01T08:26:53.240Z,669.00
2023-05-01T08:27:53.228Z,670.00
2023-05-01T08:28:53.211Z,672.00
2023-05-01T08:29:53.195Z,672.00
2023-05-01T08:30:53.177Z,673.00
2023-05-01T08:31:53.253Z,673.00
2023-05-01T08:32:53.218Z,671.00
2023-05-01T08:33:53.139Z,673.00
2023-05-01T08:34:53.115Z,676.00
2023-05-01T08:35:53.121Z,678.00
2023-05-01T08:36:53.151Z,677.00
2023-05-01T08:37:53.214Z,676.00
2023-05-01T08:38:53.263Z,674.00
2023-05-01T08:39:53.296Z,670.00
2023-05-01T08:40:53.361Z,669.00
2023-05-01T08:41:53.389Z,673.00
2023-05-01T08:42:53.501Z,674.00
2023-05-01T08:43:53.473Z,675.00
2023-05-01T08:44:53.523Z,675.00
2023-05-01T08:45:53.552Z,675.00
2023-05-01T08:46:53.611Z,673.00
2023-05-01T08:47:53.645Z,672.00
2023-05-01T08:48:53.634Z,670.00
2023-05-01T08:49:53.764Z,670.00
2023-05-01T08:50:53.742Z,672.00
2023-05-01T08:51:53.799Z,670.00
2023-05-01T08:52:53.823Z,673.00
2023-05-01T08:53:53.875Z,672.00
2023-05-01T08:54:53.905Z,671.00
2023-05-01T08:55:53.940Z,669.00
2023-05-01T08:56:53.952Z,671.00
2023-05-01T08:57:54.007Z,674.00
2023-05-01T08:58:54.035Z,674.00
2023-05-01T08:59:54.115Z,671.00
2023-05-01T09:00:54.040Z,669.00
2023-05-01T09:01:54.083Z,667.00
2023-05-01T09:02:54.129Z,668.00
2023-05-01T09:03:54.203Z,670.00
2023-05-01T09:04:54.163Z,672.00
2023-05-01T09:05:54.192Z,674.00
2023-05-01T09:06:54.272Z,674.00
2023-05-01T09:07:54.290Z,671.00
2023-05-01T09:08:54.314Z,671.00
2023-05-01T09:09:54.428Z,673.00
2023-05-01T09:10:54.406Z,674.00
2023-05-01T09:11:54.434Z,674.00
2023-05-01T09:12:54.480Z,674.00
2023-05-01T09:13:54.518Z,673.00
2023-05-01T09:14:54.556Z,673.00
2023-05-01T09:15:54.645Z,674.00
2023-05-01T09:16:54.738Z,673.00
2023-05-01T09:17:54.850Z,674.00
2023-05-01T09:18:54.756Z,675.00
2023-05-01T09:19:54.980Z,672.00
2023-05-01T09:20:54.835Z,671.00
2023-05-01T09:21:54.874Z,670.00
2023-05-01T09:22:54.934Z,670.00
2023-05-01T09:23:54.973Z,673.00
2023-05-01T09:24:55.037Z,674.00
2023-05-01T09:25:55.083Z,672.00
2023-05-01T09:26:55.141Z,672.00
2023-05-01T09:27:55.170Z,674.00
2023-05-01T09:28:55.211Z,671.00
2023-05-01T09:29:55.404Z,670.00
2023-05-01T09:30:55.292Z,671.00
2023-05-01T09:31:55.380Z,673.00
2023-05-01T09:32:55.436Z,670.00
2023-05-01T09:33:55.459Z,669.00
2023-05-01T09:34:55.492Z,671.00
2023-05-01T09:35:55.527Z,671.00
2023-05-01T09:36:55.566Z,671.00
2023-05-01T09:37:55.595Z,671.00
2023-05-01T09:38:55.643Z,670.00
2023-05-01T09:39:55.811Z,671.00
2023-05-01T09:40:55.730Z,671.00
2023-05-01T09:41:55.766Z,670.00
2023-05-01T09:42:55.811Z,670.00
2023-05-01T09:43:55.841Z,669.00
2023-05-01T09:44:55.880Z,669.00
2023-05-01T09:45:55.990Z,668.00
2023-05-01T09:46:55.973Z,667.00
2023-05-01T09:47:56.034Z,666.00
2023-05-01T09:48:56.086Z,664.00
2023-05-01T09:49:56.275Z,663.00
2023-05-01T09:50:56.174Z,661.00
2023-05-01T09:51:56.227Z,662.00
2023-05-01T09:52:56.282Z,661.00
2023-05-01T09:53:56.324Z,664.00
2023-05-01T09:54:56.378Z,666.00
2023-05-01T09:55:56.406Z,666.00
2023-05-01T09:56:56.437Z,665.00
2023-05-01T09:57:56.475Z,666.00
2023-05-01T09:58:56.526Z,667.00
2023-05-01T09:59:56.747Z,669.00
2023-05-01T10:00:56.598Z,670.00
2023-05-01T10:01:56.681Z,669.00
2023-05-01T10:02:56.783Z,668.00
2023-05-01T10:03:56.935Z,664.00
2023-05-01T10:04:56.740Z,663.00
2023-05-01T10:05:56.910Z,661.00
2023-05-01T10:06:56.937Z,660.00
2023-05-01T10:07:56.888Z,660.00
2023-05-01T10:08:56.948Z,661.00
2023-05-01T10:09:59.227Z,662.00
2023-05-01T10:10:56.966Z,666.00
2023-05-01T10:11:56.970Z,666.00
2023-05-01T10:12:56.979Z,668.00
2023-05-01T10:13:56.934Z,669.00
2023-05-01T10:14:56.919Z,669.00
2023-05-01T10:15:56.895Z,669.00
2023-05-01T10:16:56.973Z,671.00
2023-05-01T10:17:56.936Z,669.00
2023-05-01T10:18:57.412Z,671.00
2023-05-01T10:19:57.184Z,673.00
2023-05-01T10:20:56.833Z,672.00
2023-05-01T10:21:56.822Z,672.00
2023-05-01T10:22:56.811Z,672.00
2023-05-01T10:23:56.796Z,673.00
2023-05-01T10:24:56.782Z,673.00
2023-05-01T10:25:56.790Z,674.00
2023-05-01T10:26:56.782Z,671.00
2023-05-01T10:27:56.754Z,672.00
2023-05-01T10:28:56.737Z,671.00
2023-05-01T10:29:56.963Z,669.00
2023-05-01T10:30:56.765Z,669.00
2023-05-01T10:31:56.844Z,668.00
2023-05-01T10:32:56.734Z,665.00
2023-05-01T10:33:56.649Z,665.00
2023-05-01T10:34:56.871Z,664.00
2023-05-01T10:35:56.642Z,666.00
2023-05-01T10:36:56.604Z,667.00
2023-05-01T10:37:56.588Z,670.00
2023-05-01T10:38:56.614Z,668.00
2023-05-01T10:39:56.637Z,668.00
2023-05-01T10:40:56.681Z,668.00
2023-05-01T10:41:56.720Z,668.00
2023-05-01T10:42:56.770Z,668.00
2023-05-01T10:43:56.810Z,669.00
2023-05-01T10:44:57.530Z,669.00
2023-05-01T10:45:56.933Z,668.00
2023-05-01T10:46:57.013Z,665.00
2023-05-01T10:47:57.008Z,666.00
2023-05-01T10:48:57.001Z,663.00
2023-05-01T10:49:57.010Z,660.00
2023-05-01T10:50:57.018Z,660.00
2023-05-01T10:51:57.040Z,661.00
2023-05-01T10:52:57.053Z,659.00
2023-05-01T10:53:58.030Z,657.00
2023-05-01T10:54:57.240Z,660.00
2023-05-01T10:55:56.983Z,660.00
2023-05-01T10:56:56.958Z,662.00
2023-05-01T10:57:56.938Z,662.00
2023-05-01T10:58:56.921Z,660.00
2023-05-01T10:59:56.887Z,661.00
2023-05-01T11:00:56.865Z,660.00
2023-05-01T11:01:56.874Z,663.00
2023-05-01T11:02:56.861Z,664.00
2023-05-01T11:03:56.800Z,665.00
2023-05-01T11:04:57.158Z,666.00
2023-05-01T11:05:56.784Z,669.00
2023-05-01T11:06:56.857Z,670.00
2023-05-01T11:07:56.832Z,669.00
2023-05-01T11:08:56.879Z,668.00
2023-05-01T11:09:56.910Z,668.00
2023-05-01T11:10:56.960Z,667.00
2023-05-01T11:11:56.991Z,668.00
2023-05-01T11:12:57.037Z,666.00
2023-05-01T11:13:57.044Z,666.00
2023-05-01T11:14:57.327Z,668.00
2023-05-01T11:15:57.178Z,668.00
2023-05-01T11:16:57.159Z,666.00
2023-05-01T11:17:57.310Z,664.00
2023-05-01T11:18:57.235Z,661.00
2023-05-01T11:19:57.267Z,661.00
2023-05-01T11:20:57.313Z,659.00
2023-05-01T11:21:57.349Z,658.00
2023-05-01T11:22:57.427Z,656.00
2023-05-01T11:23:57.448Z,657.00
2023-05-01T11:24:57.691Z,657.00
2023-05-01T11:25:57.508Z,655.00
2023-05-01T11:26:57.553Z,654.00
2023-05-01T11:27:57.598Z,655.00
2023-05-01T11:28:57.626Z,655.00
2023-05-01T11:29:57.666Z,655.00
2023-05-01T11:30:57.711Z,651.00
2023-05-01T11:31:57.830Z,651.00
2023-05-01T11:32:57.875Z,652.00
2023-05-01T11:33:57.849Z,650.00
2023-05-01T11:34:58.167Z,647.00
2023-05-01T11:35:57.937Z,648.00
2023-05-01T11:36:57.998Z,647.00
2023-05-01T11:37:58.022Z,648.00
2023-05-01T11:38:58.074Z,645.00
2023-05-01T11:39:58.120Z,647.00
2023-05-01T11:40:58.169Z,651.00
2023-05-01T11:41:58.218Z,648.00
2023-05-01T11:42:58.244Z,649.00
2023-05-01T11:43:58.284Z,649.00
2023-05-01T11:44:58.431Z,650.00
2023-05-01T11:45:58.392Z,651.00
2023-05-01T11:46:58.349Z,651.00
2023-05-01T11:47:59.143Z,652.00
2023-05-01T11:48:58.416Z,653.00
2023-05-01T11:49:58.509Z,652.00
2023-05-01T11:50:58.455Z,651.00
2023-05-01T11:51:58.479Z,651.00
2023-05-01T11:52:58.547Z,655.00
2023-05-01T11:53:58.567Z,655.00
2023-05-01T11:54:58.629Z,656.00
2023-05-01T11:55:58.623Z,654.00
2023-05-01T11:56:58.654Z,654.00
2023-05-01T11:57:58.826Z,652.00
2023-05-01T11:58:58.730Z,653.00
2023-05-01T11:59:58.743Z,654.00
2023-05-01T12:00:58.778Z,655.00
2023-05-01T12:01:58.833Z,655.00
2023-05-01T12:02:58.923Z,657.00
2023-05-01T12:03:58.900Z,659.00
2023-05-01T12:04:59.192Z,659.00
2023-05-01T12:05:59.000Z,657.00
2023-05-01T12:06:59.000Z,652.00
2023-05-01T12:07:59.037Z,650.00
2023-05-01T12:08:59.066Z,651.00
2023-05-01T12:09:59.092Z,649.00
2023-05-01T12:10:59.123Z,647.00
2023-05-01T12:11:59.149Z,647.00
2023-05-01T12:12:59.173Z,646.00
2023-05-01T12:13:59.162Z,647.00
2023-05-01T12:14:59.421Z,647.00
2023-05-01T12:15:59.120Z,645.00
2023-05-01T12:16:59.147Z,644.00
2023-05-01T12:17:59.130Z,646.00
2023-05-01T12:18:59.073Z,649.00
2023-05-01T12:19:59.057Z,653.00
2023-05-01T12:20:59.047Z,653.00
2023-05-01T12:21:59.033Z,652.00
2023-05-01T12:22:59.032Z,649.00
2023-05-01T12:23:59.087Z,647.00
2023-05-01T12:24:59.303Z,646.00
2023-05-01T12:25:59.166Z,647.00
2023-05-01T12:26:59.222Z,647.00
2023-05-01T12:27:59.252Z,647.00
2023-05-01T12:28:59.292Z,646.00
2023-05-01T12:29:59.313Z,648.00
2023-05-01T12:30:59.354Z,648.00